Montevideo, MN

2:41 AM CDT on May 07, 2015 (GMT -0500)
Near Chinhinta Park | | Change Station
CLOSE
Current Station
Personal Weather Station
Location: Montevideo, MN
Elevation: 1024 ft
Nearby Weather Stations

Elev 1024 ft 44.94 °N, 95.72 °W | Updated 11 seconds ago

Light Rain
Light Rain
63.7 °F
Feels Like 63.7 °F
N
3.0
Wind Variable Wind from ESE
Gusts 3.0 mph

Today
High -- | Low -- °F
--% Chance of Precip.
Yesterday
High -- | Low -- °F
Precip. -- in
6:04 AM 8:35 PM
Waning Gibbous, 90% visible
Pressure 29.69 in
Visibility 10.0 miles
Clouds Scattered Clouds 3900 ft
Overcast 9500 ft
Dew Point 59 °F
Humidity 85%
Rainfall 0.05 in
Snow Depth Not available.
UV 0 out of 12
Pollen 7.50 out of 12
Air Quality Not available.
Flu Activity Sporadic
METAR KMVE 070734Z AUTO 18013KT 10SM -RA SCT039 OVC095 17/16 A2969 RMK AO2

More Conditions Fewer Conditions

Pressure 29.69 in
Visibility 10.0 miles
Clouds Scattered Clouds 3900 ft
Overcast 9500 ft
Dew Point 59 °F
Humidity 85%
Rainfall 0.05 in
Snow Depth Not available.
UV 0 out of 12
Pollen 7.50 out of 12
Air Quality Not available.
Flu Activity Sporadic
METAR KMVE 070734Z AUTO 18013KT 10SM -RA SCT039 OVC095 17/16 A2969 RMK AO2

More Conditions Fewer Conditions

10-Day Weather Forecast

Almanac

Astronomy

May. 07, 2015 Rise Set
Actual Time
Civil Twilight
Nautical Twilight
Astronomical Twilight
Moon
Length of Visible Light
Length of Day
Tomorrow will be .
, % of the Moon is Illuminated

Today's Extremes

State Highs State Lows

Community

WunderPhotos

Upload Photos

1,819,126 photos uploaded!

WunderBlogs® & News

Nearby

Air Quality

  Air Quality AQ Index Pollutant
Not available.

Snow Depth

Station Depth Elevation

Earthquake Activity

City Distance Mag. Time & Date
Minimum magnitude displayed is 2.5.

Coastal Water Temperatures

Place Temperature

Stations

Nearby Weather Stations

Station Location Temp. Windchill Dew Point Humidity Wind Precip. Elev Updated Type